This demonstration page uses our WeatherBlox Daily Observations layout. Learn more.

36.17497, -115.13722

Hourly Observations for July 18, 2019

Temp ( °F °C ) Dew Point ( °F °C ) Humidity (%) Winds ( mph kmh ) Pressure ( in mb ) Visibility ( mi km ) Precip ( " mm )
12:53 am 00:53 Clear 86 30 29 -1.7 13 13 S 6 9 29.8 1009 10 16.09344 0 0
1:53 am 01:53 Clear 86 30 30 -1.1 13 13 SW 6 9 29.8 1009 10 16.09344 0 0
2:53 am 02:53 Clear 85 29.4 34 1.1 16 16 SE 6 9 29.8 1009 10 16.09344 0 0
3:53 am 03:53 Clear 81 27.2 35 1.7 19 19 WNW 5 7 29.83 1010 10 16.09344 0 0
4:53 am 04:53 Clear 78 25.6 35 1.7 21 21 WNW 5 7 29.83 1010 10 16.09344 0 0
5:53 am 05:53 Sunny 77 25 37 2.8 24 24 NNW 5 7 29.85 1011 10 16.09344 0 0
6:53 am 06:53 Sunny 80 26.7 40 4.4 24 24 NNW 6 9 29.85 1011 10 16.09344 0 0
7:53 am 07:53 Sunny 84 28.9 39 3.9 20 20 Calm 29.88 1012 10 16.09344 0 0
8:53 am 08:53 Sunny 88 31.1 41 5 19 19 S 5 7 29.88 1012 10 16.09344 0 0
9:53 am 09:53 Sunny 92 33.3 41 5 17 17 Calm 29.88 1012 10 16.09344 0 0
10:53 am 10:53 Sunny 96 35.6 35 1.7 12 12 S 8 13 29.85 1011 10 16.09344 0 0
11:53 am 11:53 Sunny 98 36.7 29 -1.7 9 9 S 13 20 29.83 1010 10 16.09344 0 0
12:53 pm 12:53 Sunny 102 38.9 28 -2.2 7 7 S 14 22 29.8 1009 10 16.09344 0 0
1:53 pm 13:53 Sunny 102 38.9 23 -5 6 6 SSW 15 24 29.8 1009 10 16.09344 0 0
2:53 pm 14:53 Sunny 103 39.4 27 -2.8 7 7 S 17 28 29.77 1008 10 16.09344 0 0
3:53 pm 15:53 Sunny 105 40.6 24 -4.4 6 6 SW 15 24 29.74 1007 10 16.09344 0 0
4:53 pm 16:53 Sunny 104 40 24 -4.4 6 6 SW 20 31 29.71 1006 10 16.09344 0 0
5:53 pm 17:53 Sunny 104 40 21 -6.1 5 5 SSW 16 26 29.71 1006 10 16.09344 0 0
6:53 pm 18:53 Sunny 102 38.9 24 -4.4 6 6 WSW 15 24 29.71 1006 10 16.09344 0 0
7:53 pm 19:53 Sunny 99 37.2 25 -3.9 7 7 SW 13 20 29.71 1006 10 16.09344 0 0
8:53 pm 20:53 Clear 96 35.6 29 -1.7 9 9 SSW 14 22 29.71 1006 10 16.09344 0 0
9:53 pm 21:53 Clear 96 35.6 28 -2.2 9 9 WSW 12 19 29.74 1007 10 16.09344 0 0
10:53 pm 22:53 Clear 92 33.3 31 -0.6 11 11 S 8 13 29.74 1007 10 16.09344 0 0
11:53 pm 23:53 Clear 90 32.2 32 0 13 13 SSW 8 13 29.74 1007 10 16.09344 0 0

Powered by AerisWeather